Trevor, Wisconsin
Current Conditions -  °F | °C
As of 1:53 PM on Sunday 23 Nov 2014 (Local Time) from KENW Reporting Station
Light Rain Light Rain  
Wind Chill: 11°   Ceiling: 8000
Heat Index: 11°   Visibility: 5mi
Dew Point:   Wind: 8mph
Humidity: 89%   Direction: 140°SE
Pressure: 29.52"   Gusts: NA
Location:  42.51°N, 88.12°W
Report Text: KENW 231953Z 14007KT 5SM -RA BR SCT012 BKN080 OVC095 11/09 A2952 RMK AO2 PRESFR SLP998 P0002 T01060089
Loading
Personal Weather Stations






























Interactive Weather Map New forecast layout! Learn more

10-Day Weather Forecast

Advertisements
Track Severe Weather on mobile